Latest Weather Observations for Onslow Airport

IDW60801

Issued at 6:33 am WST Thursday 30 March 2017 (issued every 30 minutes, with the page automatically refreshed every 10 minutes)

About weather observations | Map of weather stations | Latest weather observations for WA | Other Formats
Station Details ID: 005017 Name: ONSLOW AIRPORT Lat: -21.67 Lon: 115.11 Height: 10.5 m
Data from the previous 72 hours. | See also: Recent months at Onslow Airport
Date/Time
WST
Temp
°C
App
Temp
°C
Dew
Point
°C
Rel
Hum
%
Delta-T
°C
Wind Press
QNH
hPa
Press
MSL
hPa
Rain since
9am
mm
Dir  Spd
km/h
Gust
km/h
Spd
kts
Gust
kts
30/06:30am 26.9 29.1 24.0 84 2.0 E 19 20 10 11 1012.9 1012.8 0.6
30/06:00am 27.0 29.8 24.3 85 1.9 ENE 17 20 9 11 1012.5 1012.4 0.6
30/05:30am 27.2 29.7 24.5 85 1.9 E 19 22 10 12 1012.4 1012.3 0.6
30/05:00am 27.2 30.5 24.5 85 1.9 ENE 15 17 8 9 1012.1 1012.0 0.6
30/04:30am 27.3 30.3 24.6 85 1.9 ENE 17 20 9 11 1012.0 1011.9 0.6
30/04:00am 27.3 29.7 24.6 85 1.9 ENE 20 24 11 13 1011.9 1011.8 0.6
30/03:30am 27.2 30.2 24.7 86 1.7 ENE 17 20 9 11 1011.9 1011.8 0.6
30/03:00am 26.8 31.0 24.8 89 1.4 E 11 15 6 8 1011.8 1011.7 0.6
30/02:30am 26.5 30.6 24.5 89 1.4 ESE 11 13 6 7 1011.9 1011.8 0.6
30/02:00am 26.4 29.5 24.2 88 1.5 E 15 19 8 10 1012.0 1011.9 0.6
30/01:30am 26.3 29.7 24.0 87 1.6 ESE 13 17 7 9 1012.2 1012.1 0.6
30/01:00am 26.3 29.6 23.8 86 1.7 ESE 13 15 7 8 1012.1 1012.0 0.6
30/12:30am 26.2 29.8 23.7 86 1.7 SE 11 13 6 7 1012.4 1012.3 0.6
30/12:00am 26.4 30.1 23.9 86 1.7 SSE 11 13 6 7 1012.6 1012.5 0.6
 
Date/Time
WST
Temp
°C
App
Temp
°C
Dew
Point
°C
Rel
Hum
%
Delta-T
°C
Wind Press
QNH
hPa
Press
MSL
hPa
Rain since
9am
mm
Dir  Spd
km/h
Gust
km/h
Spd
kts
Gust
kts
29/11:30pm 26.5 30.0 24.2 87 1.6 S 13 15 7 8 1012.8 1012.7 0.6
29/11:00pm 26.9 30.6 24.5 87 1.7 SSW 13 19 7 10 1012.7 1012.6 0.6
29/10:30pm 27.3 31.3 25.1 88 1.5 S 13 19 7 10 1012.8 1012.7 0.6
29/10:00pm 27.5 30.9 24.7 85 1.9 SSE 15 19 8 10 1013.0 1012.9 0.6
29/09:30pm 27.3 31.2 24.9 87 1.7 ENE 13 17 7 9 1012.5 1012.4 0.6
29/09:00pm 27.2 29.9 24.8 87 1.7 NNE 19 28 10 15 1012.0 1011.9 0.6
29/08:30pm 28.0 33.6 25.8 88 1.6 ENE 7 9 4 5 1011.5 1011.4 0.6
29/08:00pm 27.8 32.2 25.6 88 1.6 NNE 13 15 7 8 1011.0 1010.9 0.6
29/07:30pm 28.2 32.1 24.8 82 2.4 ESE 13 17 7 9 1010.7 1010.6 0.4
29/07:00pm 28.7 33.6 24.7 79 2.8 SSE 7 15 4 8 1011.3 1011.2 0.0
29/06:30pm 28.4 31.8 24.0 77 3.0 SW 13 19 7 10 1010.6 1010.5 0.0
29/06:00pm 29.9 33.8 24.8 74 3.6 W 13 17 7 9 1010.3 1010.2 0.0
29/05:30pm 30.7 34.2 24.8 71 4.1 NNW 15 20 8 11 1009.9 1009.8 0.0
29/05:00pm 31.0 33.8 24.9 70 4.3 NNW 19 22 10 12 1009.0 1008.9 0.0
29/04:30pm 31.5 34.1 24.9 68 4.6 NNW 20 26 11 14 1008.6 1008.5 0.0
29/04:00pm 32.1 34.9 24.9 65 5.1 NNW 19 24 10 13 1008.6 1008.5 0.0
29/03:30pm 32.5 35.8 25.1 65 5.2 NNW 17 20 9 11 1008.7 1008.6 0.0
29/03:00pm 33.4 35.6 24.0 58 6.6 NW 19 24 10 13 1008.6 1008.5 0.0
29/02:30pm 34.4 38.1 24.6 56 6.9 NNW 13 19 7 10 1008.7 1008.6 0.0
29/02:00pm 34.6 38.5 24.8 56 6.9 N 13 22 7 12 1008.9 1008.8 0.0
29/01:30pm 34.4 37.1 23.4 52 7.6 N 15 20 8 11 1009.2 1009.1 0.0
29/01:00pm 34.8 37.9 24.1 53 7.5 N 15 20 8 11 1009.4 1009.3 0.0
29/12:30pm 33.8 36.9 24.1 57 6.8 NNE 15 20 8 11 1009.8 1009.7 0.0
29/12:00pm 34.3 36.9 23.3 52 7.6 ENE 15 20 8 11 1010.3 1010.2 0.0
29/11:30am 34.1 37.2 23.5 54 7.4 SE 13 17 7 9 1010.6 1010.5 0.0
29/11:00am 33.4 35.7 22.8 53 7.3 SE 15 19 8 10 1010.9 1010.8 0.0
29/10:30am 32.7 35.2 23.1 57 6.6 SE 15 20 8 11 1011.2 1011.1 0.0
29/10:00am 31.7 34.0 23.5 62 5.7 SE 17 22 9 12 1011.4 1011.3 0.0
29/09:30am 30.2 32.9 24.1 70 4.2 SE 17 20 9 11 1011.6 1011.5 0.0
29/09:00am 29.5 32.1 23.9 72 3.9 SE 17 20 9 11 1011.7 1011.6 32.0
29/08:30am 28.5 31.2 24.1 77 3.0 SSE 17 20 9 11 1011.7 1011.6 32.0
29/08:00am 27.5 30.1 23.9 81 2.5 SSE 17 20 9 11 1011.5 1011.4 32.0
29/07:30am 26.4 28.5 23.7 85 1.9 S 19 24 10 13 1010.9 1010.8 32.0
29/07:00am 25.6 27.7 23.7 89 1.3 S 19 22 10 12 1010.8 1010.7 32.0
29/06:30am 25.2 28.2 23.4 90 1.2 S 13 19 7 10 1010.5 1010.4 32.0
29/06:00am 25.4 28.1 23.5 89 1.3 S 15 19 8 10 1010.1 1010.0 32.0
29/05:30am 25.6 27.0 23.5 88 1.4 S 22 28 12 15 1009.7 1009.6 32.0
29/05:00am 25.4 27.2 23.3 88 1.4 SSE 19 24 10 13 1009.7 1009.6 32.0
29/04:30am 25.3 27.6 23.5 90 1.2 S 17 20 9 11 1009.7 1009.6 32.0
29/04:00am 25.4 27.2 23.5 89 1.3 S 20 28 11 15 1009.5 1009.4 32.0
29/03:30am 25.2 26.5 23.4 90 1.2 SSW 22 30 12 16 1009.2 1009.1 32.0
29/03:00am 25.4 27.2 23.6 90 1.2 SSE 20 24 11 13 1009.2 1009.1 32.0
29/02:30am 25.2 26.9 23.4 90 1.2 SSE 20 26 11 14 1009.4 1009.3 32.0
29/02:00am 25.2 27.1 23.8 92 1.0 SE 20 24 11 13 1009.7 1009.6 32.0
29/01:30am 25.1 28.9 24.1 94 0.7 ESE 11 15 6 8 1010.0 1009.9 32.0
29/01:00am 24.8 28.1 23.8 94 0.7 ESE 13 17 7 9 1010.6 1010.5 31.8
29/12:30am 24.9 26.1 23.9 94 0.7 SE 24 32 13 17 1011.6 1011.5 30.6
29/12:00am 24.6 25.7 23.6 94 0.7 ESE 24 33 13 18 1012.0 1011.9 29.0
 
Date/Time
WST
Temp
°C
App
Temp
°C
Dew
Point
°C
Rel
Hum
%
Delta-T
°C
Wind Press
QNH
hPa
Press
MSL
hPa
Rain since
9am
mm
Dir  Spd
km/h
Gust
km/h
Spd
kts
Gust
kts
28/11:30pm 24.3 25.2 23.3 94 0.7 ESE 24 28 13 15 1012.1 1012.0 28.4
28/11:00pm 24.0 25.5 23.0 94 0.7 S 20 30 11 16 1012.5 1012.4 28.2
28/10:30pm 23.5 24.0 22.7 95 0.5 SE 24 33 13 18 1013.2 1013.1 27.8
28/10:23pm 23.8 24.5 23.0 95 0.5 SE 24 28 13 15 1013.4 1013.3 27.8
28/10:00pm 22.6 20.1 21.6 94 0.7 ESE 37 46 20 25 1013.5 1013.4 27.2
28/09:32pm 24.0 22.3 21.7 87 1.5 ENE 33 65 18 35 1013.5 1013.4 12.0
28/09:30pm 24.8 24.4 22.3 86 1.7 ENE 28 52 15 28 1013.5 1013.4 9.6
28/09:29pm 25.0 25.2 22.1 84 1.9 NE 24 52 13 28 1013.5 1013.4 7.8
28/09:28pm 26.2 27.6 23.5 85 1.8 NE 22 52 12 28 1013.2 1013.1 6.4
28/09:00pm 29.6 32.5 23.1 68 4.5 WSW 13 17 7 9 1011.0 1010.9 0.0
28/08:30pm 29.2 31.5 24.1 74 3.5 WSW 19 24 10 13 1010.6 1010.5 0.0
28/08:00pm 28.9 31.6 24.7 78 2.9 WSW 19 24 10 13 1010.1 1010.0 0.0
28/07:30pm 28.9 31.9 25.5 82 2.4 WSW 20 28 11 15 1009.8 1009.7 0.0
28/07:00pm 29.1 32.1 25.5 81 2.5 W 20 28 11 15 1009.1 1009.0 0.0
28/06:30pm 29.4 31.6 24.9 77 3.2 W 22 28 12 15 1008.7 1008.6 0.0
28/06:00pm 30.1 31.7 24.5 72 3.9 WNW 24 28 13 15 1008.6 1008.5 0.0
28/05:30pm 31.0 32.8 23.6 64 5.1 NW 20 26 11 14 1008.0 1007.9 0.0
28/05:00pm 31.7 33.9 24.0 63 5.4 NW 19 26 10 14 1008.2 1008.1 0.0
28/04:30pm 31.9 33.2 24.0 63 5.5 NW 24 30 13 16 1008.3 1008.2 0.0
28/04:00pm 33.0 32.2 20.9 49 8.1 NNW 26 32 14 17 1008.4 1008.3 0.0
28/03:30pm 33.1 34.2 23.7 57 6.5 NNW 24 30 13 16 1008.6 1008.5 0.0
28/03:00pm 33.6 34.7 23.6 56 7.0 NNW 24 30 13 16 1008.8 1008.7 0.0
28/02:30pm 33.6 34.5 23.9 57 6.8 NNW 26 33 14 18 1009.1 1009.0 0.0
28/02:00pm 35.2 35.9 22.9 49 8.5 NNW 24 30 13 16 1009.3 1009.2 0.0
28/01:30pm 35.2 37.0 23.5 50 8.2 N 20 28 11 15 1009.7 1009.6 0.0
28/01:00pm 35.3 36.0 22.3 47 8.9 N 22 26 12 14 1010.0 1009.9 0.0
28/12:30pm 35.2 37.0 23.5 50 8.2 N 20 28 11 15 1010.5 1010.4 0.0
28/12:00pm 34.9 35.9 22.2 47 8.7 NNE 20 26 11 14 1010.8 1010.7 0.0
28/11:30am 35.3 37.7 23.0 49 8.5 NNE 15 20 8 11 1011.1 1011.0 0.0
28/11:00am 35.3 36.0 21.6 45 9.3 ENE 20 28 11 15 1011.2 1011.1 0.0
28/10:30am 34.5 35.9 21.9 48 8.6 ENE 17 22 9 12 1011.3 1011.2 0.0
28/10:00am 34.0 35.5 22.7 51 7.8 SE 19 24 10 13 1011.4 1011.3 0.0
28/09:30am 33.1 34.5 22.5 53 7.3 SE 19 24 10 13 1011.7 1011.6 0.0
28/09:00am 31.2 33.4 23.3 63 5.4 SE 17 20 9 11 1011.8 1011.7 0.6
28/08:30am 29.9 32.0 23.8 70 4.2 SE 19 24 10 13 1011.9 1011.8 0.6
28/08:00am 28.3 29.5 23.2 74 3.5 SE 22 26 12 14 1011.5 1011.4 0.6
28/07:30am 27.6 29.5 23.8 80 2.6 SE 20 26 11 14 1011.4 1011.3 0.6
28/07:00am 26.2 27.8 23.3 84 2.0 SE 20 26 11 14 1011.2 1011.1 0.6
28/06:30am 25.8 27.5 23.1 85 1.8 ESE 19 24 10 13 1011.0 1010.9 0.6
28/06:00am 25.6 28.1 23.1 86 1.7 ESE 15 19 8 10 1010.5 1010.4 0.6
28/05:30am 25.6 28.0 22.9 85 1.8 ESE 15 19 8 10 1010.4 1010.3 0.6
28/05:00am 25.5 28.3 23.0 86 1.7 ESE 13 17 7 9 1010.4 1010.3 0.6
28/04:30am 25.5 27.9 23.0 86 1.7 ESE 15 19 8 10 1010.2 1010.1 0.6
28/04:00am 25.6 27.3 23.1 86 1.7 ESE 19 24 10 13 1010.2 1010.1 0.6
28/03:30am 25.7 28.0 23.4 87 1.6 SE 17 20 9 11 1010.0 1009.9 0.6
28/03:00am 25.4 26.9 23.1 87 1.6 SE 20 24 11 13 1010.4 1010.3 0.6
28/02:30am 25.6 27.3 23.1 86 1.7 SE 19 22 10 12 1010.4 1010.3 0.6
28/02:00am 25.3 27.6 22.8 86 1.7 SSE 15 20 8 11 1010.6 1010.5 0.6
28/01:30am 25.2 27.7 22.5 85 1.8 SE 13 17 7 9 1010.8 1010.7 0.6
28/01:00am 25.4 26.7 22.3 83 2.1 SSE 19 24 10 13 1011.1 1011.0 0.6
28/12:30am 25.6 27.0 22.5 83 2.1 S 19 22 10 12 1011.4 1011.3 0.6
28/12:00am 25.6 28.5 23.1 86 1.7 S 13 17 7 9 1011.6 1011.5 0.6
 
Date/Time
WST
Temp
°C
App
Temp
°C
Dew
Point
°C
Rel
Hum
%
Delta-T
°C
Wind Press
QNH
hPa
Press
MSL
hPa
Rain since
9am
mm
Dir  Spd
km/h
Gust
km/h
Spd
kts
Gust
kts
27/11:30pm 25.8 27.8 22.9 84 2.0 SSE 17 20 9 11 1011.6 1011.5 0.6
27/11:00pm 26.2 28.1 22.7 81 2.4 ESE 17 22 9 12 1012.1 1012.0 0.6
27/10:30pm 27.1 29.4 22.7 77 3.0 ESE 15 20 8 11 1011.9 1011.8 0.6
27/10:00pm 26.5 28.9 23.0 81 2.4 E 15 20 8 11 1011.7 1011.6 0.6
27/09:30pm 26.1 27.5 22.8 82 2.2 ESE 20 28 11 15 1011.4 1011.3 0.6
27/09:00pm 26.6 27.9 22.7 79 2.6 ESE 20 24 11 13 1011.2 1011.1 0.6
27/08:30pm 26.2 27.0 22.5 80 2.5 ESE 22 28 12 15 1011.3 1011.2 0.6
27/08:00pm 25.4 23.8 21.9 81 2.3 ESE 33 43 18 23 1011.7 1011.6 0.6
27/07:30pm 25.9 26.6 22.2 80 2.5 E 22 32 12 17 1010.8 1010.7 0.6
27/07:10pm 25.8 20.7 20.6 73 3.4 E 48 74 26 40 1010.7 1010.6 0.4
27/07:07pm 25.6 18.8 20.2 72 3.5 E 56 74 30 40 1010.8 1010.7 0.4
27/07:00pm 27.2 19.6 19.8 64 4.8 E 59 74 32 40 1010.4 1010.3 0.2
27/06:39pm 26.0 18.0 21.2 75 3.2 ENE 65 83 35 45 1011.2 1011.1 0.2
27/06:30pm 26.3 20.4 22.4 79 2.6 ENE 57 72 31 39 1011.0 1010.9 0.2
27/06:22pm 27.0 20.8 22.6 77 3.0 ENE 59 82 32 44 1011.4 1011.3 0.2
27/06:18pm 27.8 22.3 22.1 71 3.8 ENE 54 82 29 44 1011.4 1011.3 0.2
27/06:17pm 28.2 23.5 22.2 70 4.0 ENE 50 82 27 44 1011.3 1011.2 0.2
27/06:12pm 29.3 27.9 22.3 66 4.7 ENE 33 63 18 34 1011.0 1010.9 0.2
27/06:08pm 29.4 30.7 22.6 67 4.6 ENE 20 41 11 22 1010.7 1010.6 0.2
27/06:00pm 29.4 31.6 21.9 64 5.1 E 13 15 7 8 1009.7 1009.6 0.2
27/05:30pm 27.8 28.8 22.1 71 3.8 ESE 20 28 11 15 1009.7 1009.6 0.2
27/05:00pm 27.5 29.6 24.1 82 2.4 SSE 20 26 11 14 1010.1 1010.0 0.2
27/04:30pm 29.9 29.6 22.6 65 5.0 SSE 28 35 15 19 1010.1 1010.0 0.0
27/04:12pm 30.1 27.2 22.3 63 5.3 SE 41 54 22 29 1009.3 1009.2 0.0
27/04:04pm 31.8 29.1 21.3 53 7.1 SSE 37 48 20 26 1009.2 1009.1 0.0
27/04:00pm 32.7 32.6 22.2 54 7.2 SSW 26 48 14 26 1009.1 1009.0 0.0
27/03:57pm 33.2 34.1 22.0 51 7.6 SW 20 48 11 26 1008.9 1008.8 0.0
27/03:30pm 33.8 35.6 23.5 55 7.2 WNW 20 26 11 14 1008.4 1008.3 0.0
27/03:00pm 35.9 37.3 22.8 46 9.1 NW 20 28 11 15 1007.9 1007.8 0.0
27/02:30pm 36.9 37.2 23.0 44 9.7 NNW 26 33 14 18 1007.7 1007.6 0.0
27/02:00pm 36.8 36.9 22.5 43 9.9 NNW 26 33 14 18 1007.9 1007.8 0.0
27/01:30pm 37.6 38.6 22.1 40 10.7 NNW 20 28 11 15 1008.4 1008.3 0.0
27/01:00pm 38.0 38.3 21.6 38 11.3 NNE 22 28 12 15 1009.0 1008.9 0.0
27/12:30pm 37.6 37.8 22.1 40 10.7 NNE 24 30 13 16 1009.5 1009.4 0.0
27/12:00pm 37.5 38.2 21.6 39 10.9 NNE 20 28 11 15 1009.9 1009.8 0.0
27/11:30am 37.1 38.0 22.0 41 10.4 NE 20 28 11 15 1010.2 1010.1 0.0
27/11:00am 37.6 38.2 21.3 39 11.1 E 20 26 11 14 1010.4 1010.3 0.0
27/10:30am 36.8 36.4 21.0 40 10.7 E 24 33 13 18 1010.6 1010.5 0.0
27/10:00am 35.8 34.6 20.1 40 10.5 SE 26 30 14 16 1010.7 1010.6 0.0
27/09:30am 34.9 33.9 20.5 43 9.7 SE 26 33 14 18 1010.6 1010.5 0.0
27/09:00am 33.9 33.9 21.0 47 8.7 SE 22 26 12 14 1010.5 1010.4 0.0
27/08:30am 32.7 33.8 21.9 53 7.3 SE 19 24 10 13 1010.4 1010.3 0.0
27/08:00am 31.0 33.3 22.0 58 6.1 ESE 13 17 7 9 1010.1 1010.0 0.0
27/07:30am 29.7 32.0 22.7 66 4.8 ESE 15 20 8 11 1009.9 1009.8 0.0
27/07:00am 28.3 30.6 22.8 72 3.7 ESE 15 19 8 10 1009.6 1009.5 0.0

Other Formats:

Comma delimited format used in spreadsheet applications
http://www.bom.gov.au/fwo/IDW60801/IDW60801.95305.axf

JavaScript Object Notation format (JSON) in row-major order
http://www.bom.gov.au/fwo/IDW60801/IDW60801.95305.json